createdAt,value
2022-08-31T00:01:48.995Z,14.82
2022-08-31T00:04:15.662Z,14.63
2022-08-31T00:06:42.229Z,14.72
2022-08-31T00:09:08.731Z,14.59
2022-08-31T00:11:36.234Z,14.51
2022-08-31T00:14:11.482Z,14.57
2022-08-31T00:16:42.148Z,14.62
2022-08-31T00:19:09.088Z,14.58
2022-08-31T00:21:35.663Z,14.47
2022-08-31T00:24:02.330Z,14.31
2022-08-31T00:26:28.852Z,14.35
2022-08-31T00:28:55.369Z,14.31
2022-08-31T00:31:22.041Z,14.26
2022-08-31T00:33:52.374Z,14.40
2022-08-31T00:36:21.977Z,14.28
2022-08-31T00:38:49.568Z,14.45
2022-08-31T00:41:19.482Z,14.39
2022-08-31T00:43:52.839Z,14.22
2022-08-31T00:46:22.355Z,14.19
2022-08-31T00:49:00.941Z,14.10
2022-08-31T00:51:30.362Z,14.20
2022-08-31T00:53:58.145Z,14.10
2022-08-31T00:56:25.898Z,14.10
2022-08-31T00:58:54.348Z,14.17
2022-08-31T01:01:22.235Z,14.25
2022-08-31T01:03:49.230Z,14.27
2022-08-31T01:07:14.942Z,14.24
2022-08-31T01:09:43.519Z,14.27
2022-08-31T01:12:22.448Z,14.26
2022-08-31T01:14:49.158Z,14.24
2022-08-31T01:17:17.634Z,14.24
2022-08-31T01:19:54.284Z,14.26
2022-08-31T01:22:30.587Z,14.25
2022-08-31T01:24:58.849Z,14.20
2022-08-31T01:27:33.898Z,14.21
2022-08-31T01:30:06.195Z,14.14
2022-08-31T01:32:32.706Z,14.18
2022-08-31T01:34:59.306Z,14.22
2022-08-31T01:37:29.520Z,14.23
2022-08-31T01:39:57.195Z,14.04
2022-08-31T01:42:23.688Z,14.16
2022-08-31T01:44:59.882Z,14.06
2022-08-31T01:47:26.414Z,14.04
2022-08-31T01:49:52.988Z,13.98
2022-08-31T01:52:27.567Z,13.81
2022-08-31T01:54:54.900Z,13.63
2022-08-31T01:57:33.442Z,13.82
2022-08-31T02:00:05.778Z,13.95
2022-08-31T02:02:32.477Z,13.95
2022-08-31T02:04:59.111Z,13.88
2022-08-31T02:07:25.815Z,13.99
2022-08-31T02:09:53.688Z,14.00
2022-08-31T02:12:20.170Z,13.81
2022-08-31T02:14:46.677Z,13.80
2022-08-31T02:17:13.246Z,13.95
2022-08-31T02:19:39.740Z,14.03
2022-08-31T02:22:06.359Z,14.04
2022-08-31T02:24:32.851Z,14.08
2022-08-31T02:26:59.464Z,13.87
2022-08-31T02:29:26.125Z,14.11
2022-08-31T02:31:52.763Z,13.93
2022-08-31T02:34:19.329Z,14.03
2022-08-31T02:36:45.953Z,14.21
2022-08-31T02:39:13.683Z,14.12
2022-08-31T02:41:41.707Z,14.07
2022-08-31T02:44:08.417Z,14.13
2022-08-31T02:46:35.313Z,14.06
2022-08-31T02:49:02.428Z,14.12
2022-08-31T02:51:29.653Z,14.21
2022-08-31T02:53:56.140Z,14.19
2022-08-31T02:56:23.828Z,14.28
2022-08-31T02:58:54.889Z,14.06
2022-08-31T03:01:23.843Z,14.02
2022-08-31T03:03:50.837Z,14.07
2022-08-31T03:06:19.255Z,14.05
2022-08-31T03:08:47.417Z,14.00
2022-08-31T03:11:14.670Z,14.21
2022-08-31T03:13:42.165Z,14.05
2022-08-31T03:16:09.787Z,14.08
2022-08-31T03:18:36.369Z,13.96
2022-08-31T03:21:02.889Z,14.08
2022-08-31T03:23:29.477Z,13.93
2022-08-31T03:25:56.037Z,13.87
2022-08-31T03:28:22.587Z,13.96
2022-08-31T03:30:49.112Z,13.86
2022-08-31T03:33:16.094Z,13.81
2022-08-31T03:35:44.256Z,13.98
2022-08-31T03:38:12.928Z,13.83
2022-08-31T03:40:44.207Z,13.75
2022-08-31T03:43:11.612Z,13.80
2022-08-31T03:45:42.061Z,13.59
2022-08-31T03:48:12.863Z,13.56
2022-08-31T03:50:41.056Z,13.79
2022-08-31T03:53:09.174Z,13.79
2022-08-31T03:55:38.169Z,13.81
2022-08-31T03:58:05.276Z,13.85
2022-08-31T04:00:33.108Z,13.96
2022-08-31T04:03:00.342Z,14.01
2022-08-31T04:05:29.268Z,13.89
2022-08-31T04:07:56.378Z,13.89
2022-08-31T04:10:23.120Z,13.82
2022-08-31T04:12:50.514Z,13.86
2022-08-31T04:15:18.065Z,13.92
2022-08-31T04:17:45.888Z,13.70
2022-08-31T04:20:12.942Z,13.65
2022-08-31T04:22:39.545Z,13.68
2022-08-31T04:25:06.694Z,13.76
2022-08-31T04:27:33.192Z,13.73
2022-08-31T04:29:59.762Z,13.69
2022-08-31T04:32:26.630Z,13.59
2022-08-31T04:34:56.386Z,13.61
2022-08-31T04:37:23.522Z,13.75
2022-08-31T04:39:52.247Z,13.65
2022-08-31T04:42:19.409Z,13.75
2022-08-31T04:44:45.996Z,13.73
2022-08-31T04:47:12.473Z,13.71
2022-08-31T04:49:39.352Z,13.77
2022-08-31T04:52:06.686Z,13.82
2022-08-31T04:54:33.154Z,13.82
2022-08-31T04:56:59.735Z,13.71
2022-08-31T04:59:27.441Z,13.70
2022-08-31T05:01:55.571Z,13.57
2022-08-31T05:04:24.566Z,13.64
2022-08-31T05:06:51.179Z,13.72
2022-08-31T05:09:21.814Z,13.69
2022-08-31T05:11:50.429Z,13.65
2022-08-31T05:14:17.187Z,13.63
2022-08-31T05:16:44.131Z,13.54
2022-08-31T05:19:11.154Z,13.76
2022-08-31T05:21:40.974Z,13.72
2022-08-31T05:24:11.105Z,13.34
2022-08-31T05:26:42.143Z,13.53
2022-08-31T05:29:09.661Z,13.59
2022-08-31T05:31:39.168Z,13.65
2022-08-31T05:34:06.735Z,13.63
2022-08-31T05:36:34.343Z,13.85
2022-08-31T05:39:02.034Z,13.68
2022-08-31T05:41:29.942Z,13.76
2022-08-31T05:43:56.702Z,13.70
2022-08-31T05:46:23.530Z,13.92
2022-08-31T05:48:50.246Z,13.82
2022-08-31T05:51:18.520Z,13.99
2022-08-31T05:53:45.898Z,13.86
2022-08-31T05:56:15.532Z,13.88
2022-08-31T05:58:46.732Z,13.73
2022-08-31T06:01:32.498Z,13.91
2022-08-31T06:03:59.990Z,14.14
2022-08-31T06:06:26.851Z,14.14
2022-08-31T06:08:53.367Z,14.09
2022-08-31T06:11:23.714Z,13.67
2022-08-31T06:13:52.697Z,13.82
2022-08-31T06:16:21.091Z,14.08
2022-08-31T06:18:50.902Z,13.81
2022-08-31T06:21:30.919Z,14.17
2022-08-31T06:23:58.190Z,14.46
2022-08-31T06:26:27.878Z,14.65
2022-08-31T06:28:57.397Z,14.71
2022-08-31T06:31:33.908Z,14.72
2022-08-31T06:34:02.093Z,14.86
2022-08-31T06:36:31.218Z,15.17
2022-08-31T06:38:59.788Z,15.25
2022-08-31T06:41:32.157Z,15.17
2022-08-31T06:44:02.143Z,15.31
2022-08-31T06:46:29.775Z,15.42
2022-08-31T06:48:57.396Z,15.71
2022-08-31T06:51:24.776Z,16.27
2022-08-31T06:53:52.619Z,16.11
2022-08-31T06:56:22.083Z,15.90
2022-08-31T06:58:53.800Z,16.16
2022-08-31T07:01:34.902Z,15.97
2022-08-31T07:04:06.216Z,16.00
2022-08-31T07:06:36.729Z,16.30
2022-08-31T07:09:06.759Z,16.56
2022-08-31T07:11:44.595Z,17.00
2022-08-31T07:14:14.397Z,17.01
2022-08-31T07:16:42.176Z,17.10
2022-08-31T07:19:09.035Z,17.70
2022-08-31T07:21:40.780Z,17.98
2022-08-31T07:24:08.051Z,18.27
2022-08-31T07:26:38.165Z,18.81
2022-08-31T07:29:06.473Z,18.67
2022-08-31T07:31:44.747Z,18.67
2022-08-31T07:34:14.693Z,18.61
2022-08-31T07:36:59.881Z,18.69
2022-08-31T07:39:46.638Z,18.73
2022-08-31T07:42:16.233Z,18.35
2022-08-31T07:44:42.755Z,19.26
2022-08-31T07:47:22.542Z,19.79
2022-08-31T07:49:52.942Z,19.55
2022-08-31T07:52:28.811Z,19.59
2022-08-31T07:55:04.895Z,20.05
2022-08-31T07:57:36.265Z,20.10
2022-08-31T08:00:08.529Z,20.36
2022-08-31T08:02:39.225Z,20.44
2022-08-31T08:05:08.501Z,20.95
2022-08-31T08:07:36.973Z,21.04
2022-08-31T08:10:13.972Z,21.83
2022-08-31T08:12:43.047Z,22.12
2022-08-31T08:15:10.389Z,22.48
2022-08-31T08:17:36.948Z,22.73
2022-08-31T08:20:04.460Z,21.86
2022-08-31T08:22:51.550Z,21.91
2022-08-31T08:25:18.613Z,21.89
2022-08-31T08:27:55.694Z,22.63
2022-08-31T08:30:22.662Z,22.88
2022-08-31T08:32:49.177Z,22.79
2022-08-31T08:35:16.515Z,23.01
2022-08-31T08:37:58.493Z,21.90
2022-08-31T08:40:44.196Z,21.74
2022-08-31T08:43:15.917Z,22.39
2022-08-31T08:45:50.306Z,23.11
2022-08-31T08:48:22.326Z,23.50
2022-08-31T08:50:52.877Z,23.12
2022-08-31T08:53:24.550Z,22.99
2022-08-31T08:55:51.813Z,23.27
2022-08-31T08:58:19.289Z,23.24
2022-08-31T09:00:54.541Z,21.73
2022-08-31T09:03:44.340Z,22.37
2022-08-31T09:06:15.344Z,22.68
2022-08-31T09:09:12.581Z,22.59
2022-08-31T09:12:05.025Z,21.80
2022-08-31T09:14:38.186Z,21.74
2022-08-31T09:17:19.808Z,21.86
2022-08-31T09:20:05.660Z,20.37
2022-08-31T09:22:57.157Z,21.31
2022-08-31T09:25:33.185Z,21.54
2022-08-31T09:28:03.516Z,20.60
2022-08-31T09:30:44.915Z,20.28
2022-08-31T09:33:35.609Z,20.32
2022-08-31T09:36:22.629Z,20.46
2022-08-31T09:38:49.916Z,21.07
2022-08-31T09:41:36.451Z,21.38
2022-08-31T09:44:32.876Z,21.33
2022-08-31T09:47:02.988Z,21.37
2022-08-31T09:49:39.336Z,21.45
2022-08-31T09:52:42.849Z,20.60
2022-08-31T09:55:13.678Z,22.07
2022-08-31T09:57:50.523Z,22.79
2022-08-31T10:00:26.438Z,23.77
2022-08-31T10:02:58.314Z,25.56
2022-08-31T10:05:40.635Z,25.49
2022-08-31T10:08:33.231Z,25.81
2022-08-31T10:11:11.498Z,23.95
2022-08-31T10:13:42.319Z,23.95
2022-08-31T10:16:26.144Z,23.20
2022-08-31T10:19:03.313Z,21.87
2022-08-31T10:21:53.457Z,21.90
2022-08-31T10:24:28.849Z,22.80
2022-08-31T10:27:02.951Z,22.33
2022-08-31T10:29:46.074Z,21.72
2022-08-31T10:32:27.756Z,20.98
2022-08-31T10:35:05.829Z,20.26
2022-08-31T10:37:50.442Z,20.36
2022-08-31T10:40:23.458Z,21.41
2022-08-31T10:43:08.679Z,21.30
2022-08-31T10:45:43.746Z,20.96
2022-08-31T10:48:12.857Z,20.84
2022-08-31T10:50:51.700Z,21.71
2022-08-31T10:53:50.614Z,21.76
2022-08-31T10:56:32.350Z,20.61
2022-08-31T10:59:08.534Z,20.74
2022-08-31T11:01:42.199Z,20.36
2022-08-31T11:04:29.255Z,19.81
2022-08-31T11:06:55.734Z,20.05
2022-08-31T11:09:33.259Z,20.13
2022-08-31T11:12:07.130Z,20.60
2022-08-31T11:14:58.509Z,21.06
2022-08-31T11:17:40.234Z,21.25
2022-08-31T11:20:39.869Z,21.17
2022-08-31T11:23:19.953Z,20.17
2022-08-31T11:26:01.678Z,19.77
2022-08-31T11:28:48.925Z,19.99
2022-08-31T11:31:25.596Z,20.37
2022-08-31T11:34:15.090Z,21.29
2022-08-31T11:36:43.900Z,21.35
2022-08-31T11:39:10.294Z,21.82
2022-08-31T11:41:36.777Z,21.39
2022-08-31T11:44:05.001Z,20.15
2022-08-31T11:46:36.239Z,19.62
2022-08-31T11:49:02.838Z,19.54
2022-08-31T11:51:42.463Z,19.73
2022-08-31T11:54:41.541Z,22.46
2022-08-31T11:57:15.907Z,22.47
2022-08-31T11:59:46.101Z,21.27
2022-08-31T12:02:35.728Z,21.52
2022-08-31T12:05:03.968Z,21.66
2022-08-31T12:07:36.569Z,22.22
2022-08-31T12:10:14.912Z,21.44
2022-08-31T12:12:51.259Z,20.79
2022-08-31T12:15:58.702Z,20.54
2022-08-31T12:18:56.169Z,20.79
2022-08-31T12:21:56.331Z,21.25
2022-08-31T12:24:22.747Z,21.15
2022-08-31T12:26:58.038Z,21.03
2022-08-31T12:29:30.304Z,20.91
2022-08-31T12:32:36.246Z,20.89
2022-08-31T12:35:08.614Z,21.06
2022-08-31T12:37:37.648Z,20.19
2022-08-31T12:40:20.421Z,20.27
2022-08-31T12:42:55.965Z,20.17
2022-08-31T12:45:39.888Z,20.24
2022-08-31T12:48:24.329Z,20.29
2022-08-31T12:51:14.151Z,20.42
2022-08-31T12:54:01.012Z,20.25
2022-08-31T12:57:02.358Z,20.11
2022-08-31T13:00:01.190Z,19.63
2022-08-31T13:02:32.873Z,19.73
2022-08-31T13:05:00.414Z,20.13
2022-08-31T13:07:34.807Z,20.40
2022-08-31T13:10:05.470Z,20.63
2022-08-31T13:12:32.051Z,20.58
2022-08-31T13:14:58.598Z,20.38
2022-08-31T13:17:25.235Z,20.17
2022-08-31T13:19:54.955Z,20.41
2022-08-31T13:22:31.477Z,20.02
2022-08-31T13:25:13.243Z,19.99
2022-08-31T13:27:47.955Z,19.63
2022-08-31T13:30:18.951Z,19.65
2022-08-31T13:32:51.397Z,19.83
2022-08-31T13:35:25.673Z,19.88
2022-08-31T13:38:04.998Z,20.43
2022-08-31T13:40:39.490Z,20.31
2022-08-31T13:43:09.248Z,19.81
2022-08-31T13:45:53.065Z,19.68
2022-08-31T13:48:33.343Z,19.76
2022-08-31T13:51:07.279Z,19.41
2022-08-31T13:53:41.269Z,19.66
2022-08-31T13:56:53.716Z,19.58
2022-08-31T13:59:29.216Z,19.87
2022-08-31T14:01:55.966Z,19.35
2022-08-31T14:04:58.170Z,19.71
2022-08-31T14:07:25.952Z,19.68
2022-08-31T14:09:56.074Z,19.55
2022-08-31T14:12:46.066Z,19.52
2022-08-31T14:15:19.830Z,19.45
2022-08-31T14:21:21.111Z,19.95
2022-08-31T14:24:01.252Z,19.94
2022-08-31T14:26:31.540Z,20.13
2022-08-31T14:29:01.482Z,20.56
2022-08-31T14:31:40.175Z,20.38
2022-08-31T14:34:23.578Z,20.30
2022-08-31T14:37:06.333Z,19.63
2022-08-31T14:39:42.508Z,19.43
2022-08-31T14:42:20.161Z,19.62
2022-08-31T14:44:56.667Z,19.63
2022-08-31T14:47:25.536Z,20.07
2022-08-31T14:49:52.145Z,19.57
2022-08-31T14:52:18.772Z,19.73
2022-08-31T14:54:46.010Z,19.75
2022-08-31T14:57:15.710Z,20.07
2022-08-31T14:59:44.682Z,19.71
2022-08-31T15:02:13.955Z,19.33
2022-08-31T15:04:45.384Z,19.59
2022-08-31T15:07:13.760Z,19.53
2022-08-31T15:09:43.216Z,19.76
2022-08-31T15:12:14.691Z,20.08
2022-08-31T15:14:42.199Z,19.66
2022-08-31T15:17:13.054Z,19.84
2022-08-31T15:19:46.099Z,19.48
2022-08-31T15:22:15.682Z,19.50
2022-08-31T15:24:44.818Z,19.68
2022-08-31T15:27:13.534Z,19.64
2022-08-31T15:29:41.181Z,19.34
2022-08-31T15:32:10.368Z,19.41
2022-08-31T15:34:38.443Z,19.85
2022-08-31T15:37:06.989Z,19.79
2022-08-31T15:39:37.311Z,19.64
2022-08-31T15:42:09.266Z,19.65
2022-08-31T15:44:40.170Z,19.96
2022-08-31T15:47:28.366Z,19.84
2022-08-31T15:49:56.151Z,19.66
2022-08-31T15:52:25.721Z,19.78
2022-08-31T15:54:52.347Z,19.79
2022-08-31T15:57:18.901Z,19.67
2022-08-31T15:59:45.554Z,19.85
2022-08-31T16:02:13.761Z,19.65
2022-08-31T16:04:45.959Z,19.57
2022-08-31T16:07:13.051Z,19.43
2022-08-31T16:09:46.053Z,19.56
2022-08-31T16:12:14.484Z,19.48
2022-08-31T16:14:44.349Z,19.62
2022-08-31T16:17:19.858Z,19.80
2022-08-31T16:19:47.684Z,19.25
2022-08-31T16:22:14.477Z,19.50
2022-08-31T16:24:41.921Z,19.56
2022-08-31T16:27:11.994Z,19.55
2022-08-31T16:29:39.190Z,19.29
2022-08-31T16:32:06.910Z,19.25
2022-08-31T16:34:34.668Z,19.37
2022-08-31T16:37:07.715Z,19.19
2022-08-31T16:39:36.081Z,19.53
2022-08-31T16:42:04.442Z,19.24
2022-08-31T16:44:36.521Z,19.42
2022-08-31T16:47:04.929Z,19.26
2022-08-31T16:49:34.005Z,19.22
2022-08-31T16:52:03.288Z,19.19
2022-08-31T16:54:30.244Z,19.16
2022-08-31T16:56:57.565Z,19.18
2022-08-31T16:59:27.261Z,19.15
2022-08-31T17:01:53.889Z,18.89
2022-08-31T17:04:41.475Z,18.98
2022-08-31T17:07:10.719Z,18.89
2022-08-31T17:09:39.428Z,18.71
2022-08-31T17:12:10.127Z,18.65
2022-08-31T17:14:51.219Z,18.73
2022-08-31T17:17:20.994Z,18.88
2022-08-31T17:19:47.992Z,18.80
2022-08-31T17:22:23.413Z,19.00
2022-08-31T17:24:52.115Z,19.00
2022-08-31T17:27:20.980Z,18.91
2022-08-31T17:29:51.709Z,18.98
2022-08-31T17:32:21.366Z,18.44
2022-08-31T17:34:51.908Z,18.30
2022-08-31T17:37:36.258Z,18.16
2022-08-31T17:40:07.749Z,18.30
2022-08-31T17:42:34.871Z,18.27
2022-08-31T17:45:05.048Z,18.13
2022-08-31T17:47:33.021Z,18.00
2022-08-31T17:49:59.999Z,18.06
2022-08-31T17:52:26.517Z,17.89
2022-08-31T17:54:53.002Z,17.91
2022-08-31T17:57:25.017Z,17.72
2022-08-31T17:59:53.181Z,17.80
2022-08-31T18:02:26.408Z,17.81
2022-08-31T18:04:53.356Z,17.84
2022-08-31T18:07:20.473Z,17.84
2022-08-31T18:09:47.106Z,17.78
2022-08-31T18:12:15.600Z,17.51
2022-08-31T18:14:42.161Z,17.51
2022-08-31T18:17:10.819Z,17.44
2022-08-31T18:19:38.312Z,17.38
2022-08-31T18:22:06.608Z,17.54
2022-08-31T18:24:36.100Z,17.56
2022-08-31T18:27:06.848Z,17.44
2022-08-31T18:29:35.799Z,17.60
2022-08-31T18:32:04.317Z,17.51
2022-08-31T18:34:33.938Z,17.30
2022-08-31T18:37:01.027Z,17.38
2022-08-31T18:39:51.102Z,17.51
2022-08-31T18:42:36.704Z,17.47
2022-08-31T18:45:19.380Z,17.35
2022-08-31T18:50:49.032Z,17.22
2022-08-31T18:53:28.496Z,17.30
2022-08-31T18:55:57.856Z,17.30
2022-08-31T18:58:24.311Z,17.13
2022-08-31T19:00:57.090Z,17.12
2022-08-31T19:03:25.502Z,17.23
2022-08-31T19:05:51.933Z,17.07
2022-08-31T19:08:19.268Z,17.00
2022-08-31T19:10:46.968Z,16.88
2022-08-31T19:13:15.844Z,17.09
2022-08-31T19:15:42.391Z,16.90
2022-08-31T19:18:08.892Z,16.86
2022-08-31T19:20:35.736Z,17.04
2022-08-31T19:23:02.414Z,16.89
2022-08-31T19:25:28.996Z,16.90
2022-08-31T19:27:55.657Z,16.90
2022-08-31T19:30:27.876Z,16.89
2022-08-31T19:32:56.041Z,16.80
2022-08-31T19:35:22.659Z,16.86
2022-08-31T19:37:51.583Z,16.79
2022-08-31T19:40:18.472Z,16.83
2022-08-31T19:43:42.769Z,16.70
2022-08-31T19:45:48.513Z,16.67
2022-08-31T19:48:17.308Z,16.45
2022-08-31T19:50:43.880Z,16.74
2022-08-31T19:53:13.478Z,16.57
2022-08-31T19:55:50.124Z,16.74
2022-08-31T19:58:19.255Z,16.65
2022-08-31T20:00:48.433Z,16.69
2022-08-31T20:03:15.783Z,16.57
2022-08-31T20:05:43.179Z,16.49
2022-08-31T20:08:10.256Z,16.47
2022-08-31T20:10:41.201Z,16.32
2022-08-31T20:13:09.805Z,16.48
2022-08-31T20:15:44.609Z,16.36
2022-08-31T20:18:12.448Z,16.33
2022-08-31T20:20:48.261Z,16.32
2022-08-31T20:23:17.320Z,16.23
2022-08-31T20:25:45.681Z,16.34
2022-08-31T20:28:13.633Z,16.34
2022-08-31T20:30:43.136Z,16.20
2022-08-31T20:33:11.180Z,16.26
2022-08-31T20:35:47.408Z,16.21
2022-08-31T20:38:16.364Z,16.15
2022-08-31T20:40:44.712Z,16.08
2022-08-31T20:43:13.274Z,16.09
2022-08-31T20:45:41.553Z,16.07
2022-08-31T20:48:27.614Z,16.06
2022-08-31T20:50:55.758Z,15.98
2022-08-31T20:53:24.944Z,15.80
2022-08-31T20:56:06.882Z,15.79
2022-08-31T20:58:33.509Z,15.88
2022-08-31T21:01:04.792Z,15.95
2022-08-31T21:03:31.457Z,15.91
2022-08-31T21:06:02.275Z,15.95
2022-08-31T21:08:29.163Z,15.93
2022-08-31T21:10:55.612Z,15.81
2022-08-31T21:13:22.033Z,15.68
2022-08-31T21:15:48.729Z,15.89
2022-08-31T21:18:18.965Z,15.70
2022-08-31T21:20:46.512Z,15.77
2022-08-31T21:23:13.336Z,15.81
2022-08-31T21:25:45.622Z,15.55
2022-08-31T21:28:14.610Z,15.65
2022-08-31T21:30:41.227Z,15.70
2022-08-31T21:33:07.797Z,15.61
2022-08-31T21:35:34.295Z,15.40
2022-08-31T21:38:03.093Z,15.67
2022-08-31T21:40:31.041Z,15.62
2022-08-31T21:42:57.880Z,15.66
2022-08-31T21:45:25.232Z,15.65
2022-08-31T21:47:51.732Z,15.74
2022-08-31T21:50:18.338Z,15.46
2022-08-31T21:52:44.851Z,15.58
2022-08-31T21:55:13.625Z,15.66
2022-08-31T21:57:40.790Z,15.70
2022-08-31T22:00:13.993Z,15.44
2022-08-31T22:02:46.680Z,15.56
2022-08-31T22:05:13.818Z,15.40
2022-08-31T22:07:40.535Z,15.45
2022-08-31T22:10:07.637Z,15.48
2022-08-31T22:12:34.168Z,15.58
2022-08-31T22:15:05.232Z,15.49
2022-08-31T22:17:55.781Z,15.55
2022-08-31T22:20:19.833Z,15.52
2022-08-31T22:22:46.983Z,15.35
2022-08-31T22:25:13.695Z,15.47
2022-08-31T22:27:40.201Z,15.46
2022-08-31T22:30:07.422Z,15.60
2022-08-31T22:32:34.037Z,15.48
2022-08-31T22:35:00.632Z,15.48
2022-08-31T22:37:27.112Z,15.53
2022-08-31T22:39:54.977Z,15.60
2022-08-31T22:42:21.446Z,15.49
2022-08-31T22:44:48.033Z,15.56
2022-08-31T22:47:14.637Z,15.57
2022-08-31T22:49:41.098Z,15.48
2022-08-31T22:52:07.615Z,15.52
2022-08-31T22:54:35.208Z,15.59
2022-08-31T22:57:01.776Z,15.48
2022-08-31T22:59:30.499Z,15.59
2022-08-31T23:02:03.250Z,15.58
2022-08-31T23:04:33.259Z,15.56
2022-08-31T23:07:01.358Z,15.57
2022-08-31T23:09:30.797Z,15.56
2022-08-31T23:11:59.910Z,15.51
2022-08-31T23:14:27.012Z,15.59
2022-08-31T23:16:57.121Z,15.28
2022-08-31T23:19:30.430Z,15.45
2022-08-31T23:21:58.314Z,15.40
2022-08-31T23:24:33.099Z,15.50
2022-08-31T23:27:04.395Z,15.69
2022-08-31T23:29:35.813Z,15.67
2022-08-31T23:32:04.239Z,15.54
2022-08-31T23:34:30.904Z,15.62
2022-08-31T23:36:57.538Z,15.56
2022-08-31T23:39:24.666Z,15.63
2022-08-31T23:41:53.989Z,15.62
2022-08-31T23:44:21.364Z,15.13
2022-08-31T23:46:49.104Z,15.37
2022-08-31T23:49:18.162Z,15.41
2022-08-31T23:51:44.852Z,15.32
2022-08-31T23:54:13.888Z,15.33
2022-08-31T23:56:42.335Z,14.74
2022-08-31T23:59:13.167Z,14.74
